Time;durP1;ratioP1;P1;durP2;ratioP2;P2;SDS_P1;SDS_P2;PMS_P1;PMS_P2;Temp;Humidity;BMP_temperature;BMP_pressure;BME280_temperature;BME280_humidity;BME280_pressure;Samples;Min_cycle;Max_cycle;Signal;HPM_P1;HPM_P2
2022/06/17 00:00:13;;;;;;;4.13;3.73;;;14.80;99.90;;;;;;5100002;28;20219;-76
2022/06/17 00:02:42;;;;;;;4.73;4.07;;;14.80;99.90;;;;;;5115880;28;20195;-77
2022/06/17 00:05:10;;;;;;;5.53;4.10;;;14.80;99.90;;;;;;5098583;28;20549;-77
2022/06/17 00:07:37;;;;;;;7.37;3.93;;;14.90;99.90;;;;;;5097616;28;20196;-77
2022/06/17 00:10:04;;;;;;;5.10;3.67;;;14.80;99.90;;;;;;5097023;28;20701;-78
2022/06/17 00:12:31;;;;;;;6.63;3.77;;;14.80;99.90;;;;;;5096812;28;20261;-78
2022/06/17 00:15:12;;;;;;;7.17;4.13;;;14.80;99.90;;;;;;5096745;28;20269;-78
2022/06/17 00:17:41;;;;;;;5.00;3.90;;;14.90;99.90;;;;;;5096198;28;20281;-78
2022/06/17 00:20:10;;;;;;;6.33;4.10;;;14.90;99.90;;;;;;5096474;28;20282;-77
2022/06/17 00:22:39;;;;;;;7.27;4.00;;;14.90;99.90;;;;;;5096305;28;20196;-78
2022/06/17 00:25:14;;;;;;;6.60;4.10;;;15.00;99.90;;;;;;5096212;28;20207;-78
2022/06/17 00:27:41;;;;;;;4.37;3.63;;;15.00;99.90;;;;;;5096814;28;20199;-78
2022/06/17 00:30:16;;;;;;;4.30;3.90;;;15.00;99.90;;;;;;5096480;28;20241;-78
2022/06/17 00:32:44;;;;;;;7.83;4.50;;;15.00;99.90;;;;;;5096415;28;20196;-77
2022/06/17 00:35:12;;;;;;;4.00;3.60;;;15.00;99.90;;;;;;5095644;28;20602;-78
2022/06/17 00:37:39;;;;;;;4.97;3.90;;;14.90;99.90;;;;;;5096148;28;20637;-78
2022/06/17 00:40:13;;;;;;;8.33;3.73;;;14.90;99.90;;;;;;5096483;28;20196;-77
2022/06/17 00:42:41;;;;;;;5.33;3.80;;;14.90;99.90;;;;;;5096176;28;20689;-77
2022/06/17 00:45:16;;;;;;;6.90;4.00;;;14.90;99.90;;;;;;5096389;28;20262;-77
2022/06/17 00:47:50;;;;;;;5.27;4.10;;;14.90;99.90;;;;;;5096274;28;20196;-77
2022/06/17 00:50:21;;;;;;;5.37;4.23;;;14.90;99.90;;;;;;5095636;28;20268;-77
2022/06/17 00:52:53;;;;;;;7.07;4.30;;;15.00;99.90;;;;;;5109476;28;20196;-77
2022/06/17 00:55:27;;;;;;;4.70;3.90;;;15.00;99.90;;;;;;5105815;28;20200;-77
2022/06/17 00:57:54;;;;;;;4.83;3.93;;;15.00;99.90;;;;;;5107028;28;20245;-77
2022/06/17 01:00:23;;;;;;;7.07;3.90;;;14.90;99.90;;;;;;5117630;28;20196;-78
2022/06/17 01:02:54;;;;;;;4.37;3.83;;;14.80;99.90;;;;;;5114655;28;20222;-78
2022/06/17 01:05:24;;;;;;;6.57;4.10;;;14.70;99.90;;;;;;5104121;28;20207;-77
2022/06/17 01:07:55;;;;;;;5.37;3.83;;;14.70;99.90;;;;;;5118790;28;20249;-77
2022/06/17 01:10:22;;;;;;;7.53;4.10;;;14.70;99.90;;;;;;5120854;28;20218;-77
2022/06/17 01:12:54;;;;;;;5.40;3.80;;;14.80;99.90;;;;;;5118738;28;20216;-77
2022/06/17 01:15:25;;;;;;;4.70;3.63;;;14.80;99.90;;;;;;5099801;28;20601;-78
2022/06/17 01:17:54;;;;;;;4.13;3.60;;;14.70;99.90;;;;;;5096465;28;20281;-77
2022/06/17 01:20:23;;;;;;;5.40;4.00;;;14.60;99.90;;;;;;5095590;28;20711;-77
2022/06/17 01:22:55;;;;;;;3.90;3.60;;;14.60;99.90;;;;;;5095368;28;20197;-78
2022/06/17 01:25:24;;;;;;;4.50;4.10;;;14.60;99.90;;;;;;5094886;28;20200;-78
2022/06/17 01:27:53;;;;;;;4.53;3.80;;;14.50;99.90;;;;;;5095555;28;20272;-77
2022/06/17 01:30:23;;;;;;;6.00;4.47;;;14.60;99.90;;;;;;5095114;28;20197;-76
2022/06/17 01:32:53;;;;;;;5.97;4.23;;;14.60;99.90;;;;;;5094756;28;20193;-77
2022/06/17 01:35:23;;;;;;;4.37;3.97;;;14.40;99.90;;;;;;5095057;28;20196;-77
2022/06/17 01:37:51;;;;;;;5.00;4.07;;;14.30;99.90;;;;;;5094881;28;20216;-77
2022/06/17 01:40:20;;;;;;;7.20;4.33;;;14.30;99.90;;;;;;5094944;28;20196;-76
2022/06/17 01:42:49;;;;;;;5.67;3.93;;;14.50;99.90;;;;;;5095110;28;20196;-77
2022/06/17 01:45:16;;;;;;;4.10;3.73;;;14.60;99.90;;;;;;5094913;28;20192;-77
2022/06/17 01:47:45;;;;;;;5.10;3.80;;;14.40;99.90;;;;;;5094572;28;20196;-77
2022/06/17 01:50:16;;;;;;;5.87;3.93;;;14.50;99.90;;;;;;5094732;28;20201;-76
2022/06/17 01:52:48;;;;;;;4.23;3.87;;;14.40;99.90;;;;;;5094609;28;20663;-77
2022/06/17 01:55:21;;;;;;;6.40;4.47;;;14.40;99.90;;;;;;5094557;28;20652;-77
2022/06/17 01:57:54;;;;;;;6.07;4.17;;;14.50;99.90;;;;;;5094643;28;20220;-76
2022/06/17 02:00:23;;;;;;;6.30;4.20;;;14.30;99.90;;;;;;5094407;28;20254;-78
2022/06/17 02:02:55;;;;;;;5.67;5.07;;;14.00;99.90;;;;;;5094782;28;20199;-77
2022/06/17 02:05:24;;;;;;;6.77;4.67;;;13.80;99.90;;;;;;5094607;28;20184;-77
2022/06/17 02:07:54;;;;;;;5.93;4.77;;;13.60;99.90;;;;;;5094252;28;20691;-77
2022/06/17 02:10:28;;;;;;;6.67;5.27;;;13.40;99.90;;;;;;5094092;28;20208;-77
2022/06/17 02:12:58;;;;;;;8.17;5.67;;;13.30;99.90;;;;;;5093979;28;20257;-77
2022/06/17 02:18:01;;;;;;;7.07;5.40;;;13.40;99.90;;;;;;5378631;22;20237;-73
2022/06/17 02:20:29;;;;;;;5.67;5.07;;;13.50;99.90;;;;;;5053507;28;20244;-75
2022/06/17 02:22:57;;;;;;;6.97;5.20;;;13.50;99.90;;;;;;5053674;28;20197;-73
2022/06/17 02:25:29;;;;;;;6.33;4.77;;;13.50;99.90;;;;;;5053735;28;20248;-73
2022/06/17 02:27:59;;;;;;;6.00;5.10;;;13.40;99.90;;;;;;5053509;28;20209;-73
2022/06/17 02:30:28;;;;;;;6.27;5.17;;;13.30;99.90;;;;;;5052604;28;20590;-75
2022/06/17 02:32:57;;;;;;;8.77;5.17;;;13.10;99.90;;;;;;5053302;28;20288;-73
2022/06/17 02:35:31;;;;;;;5.70;4.70;;;13.00;99.90;;;;;;5053246;28;20201;-73
2022/06/17 02:37:58;;;;;;;5.80;5.07;;;13.10;99.90;;;;;;5053312;28;20217;-73
2022/06/17 02:40:36;;;;;;;8.47;5.77;;;13.00;99.90;;;;;;5053317;28;20201;-75
2022/06/17 02:43:05;;;;;;;5.67;5.17;;;12.90;99.90;;;;;;5053209;28;20603;-75
2022/06/17 02:45:34;;;;;;;7.80;5.37;;;12.80;99.90;;;;;;5053073;28;20284;-75
2022/06/17 02:48:04;;;;;;;8.30;5.63;;;12.70;99.90;;;;;;5052974;28;20209;-75
2022/06/17 02:50:32;;;;;;;5.90;5.40;;;12.80;99.90;;;;;;5053223;28;20280;-75
2022/06/17 02:53:01;;;;;;;7.13;5.20;;;12.90;99.90;;;;;;5053142;28;20256;-75
2022/06/17 02:55:33;;;;;;;6.17;4.70;;;12.90;99.90;;;;;;5053019;28;20275;-73
2022/06/17 02:58:10;;;;;;;6.83;5.37;;;12.70;99.90;;;;;;5052864;28;20217;-76
2022/06/17 03:00:37;;;;;;;7.23;5.50;;;12.50;99.90;;;;;;5053216;28;20201;-75
2022/06/17 03:03:07;;;;;;;6.67;5.97;;;12.40;99.90;;;;;;5053018;28;20243;-73
2022/06/17 03:05:37;;;;;;;7.80;6.00;;;12.20;99.90;;;;;;5053135;28;20240;-75
2022/06/17 03:08:17;;;;;;;8.07;5.90;;;12.10;99.90;;;;;;5052858;28;20247;-73
2022/06/17 03:10:45;;;;;;;6.37;5.67;;;12.00;99.90;;;;;;5052778;28;20343;-73
2022/06/17 03:13:14;;;;;;;7.67;5.80;;;12.10;99.90;;;;;;5052936;28;20197;-73
2022/06/17 03:15:44;;;;;;;6.20;5.60;;;12.10;99.90;;;;;;5052893;28;20194;-73
2022/06/17 03:18:11;;;;;;;8.13;6.43;;;12.00;99.90;;;;;;5052547;28;20599;-73
2022/06/17 03:20:39;;;;;;;9.50;6.30;;;12.10;99.90;;;;;;5052751;28;20255;-74
2022/06/17 03:23:11;;;;;;;6.77;5.60;;;12.10;99.90;;;;;;5052642;28;20198;-73
2022/06/17 03:25:42;;;;;;;9.50;6.47;;;12.00;99.90;;;;;;5052954;28;20202;-74
2022/06/17 03:28:13;;;;;;;8.63;6.07;;;12.00;99.90;;;;;;5052922;28;20656;-74
2022/06/17 03:30:45;;;;;;;8.77;6.00;;;11.90;99.90;;;;;;5052858;28;20263;-73
2022/06/17 03:33:17;;;;;;;8.60;6.00;;;12.00;99.90;;;;;;5052760;28;20220;-73
2022/06/17 03:35:47;;;;;;;7.57;5.73;;;11.90;99.90;;;;;;5052573;28;20202;-73
2022/06/17 03:38:23;;;;;;;7.90;5.30;;;11.80;99.90;;;;;;5052521;28;20750;-73
2022/06/17 03:40:54;;;;;;;6.13;5.37;;;12.20;99.90;;;;;;5052733;28;20197;-73
2022/06/17 03:43:27;;;;;;;6.53;5.67;;;12.40;99.90;;;;;;5056670;28;20259;-74
2022/06/17 03:45:59;;;;;;;6.40;5.77;;;12.50;99.90;;;;;;5056469;28;20198;-73
2022/06/17 03:48:35;;;;;;;6.80;6.10;;;12.60;99.90;;;;;;5056333;28;20767;-73
2022/06/17 03:51:01;;;;;;;6.63;5.93;;;12.80;99.90;;;;;;5056291;28;20651;-74
2022/06/17 03:53:30;;;;;;;9.73;5.33;;;12.80;99.90;;;;;;5056355;28;20275;-73
2022/06/17 03:56:03;;;;;;;6.77;5.83;;;12.70;99.90;;;;;;5056211;28;20213;-74
2022/06/17 03:58:33;;;;;;;7.53;5.70;;;12.80;99.90;;;;;;5056216;28;20236;-73
2022/06/17 04:01:02;;;;;;;7.00;5.87;;;12.60;99.90;;;;;;5056314;28;20198;-73
2022/06/17 04:03:33;;;;;;;6.03;5.43;;;12.60;99.90;;;;;;5056277;28;20255;-73
2022/06/17 04:06:03;;;;;;;6.07;5.10;;;12.60;99.90;;;;;;5056148;28;20240;-73
2022/06/17 04:08:29;;;;;;;7.23;5.60;;;12.70;99.90;;;;;;5056200;28;20273;-74
2022/06/17 04:10:56;;;;;;;6.23;5.43;;;12.80;99.90;;;;;;5055870;28;20255;-73
2022/06/17 04:13:26;;;;;;;7.07;5.67;;;12.90;99.90;;;;;;5056087;28;20197;-74
2022/06/17 04:16:01;;;;;;;5.77;5.23;;;12.90;99.90;;;;;;5055851;28;20652;-75
2022/06/17 04:18:28;;;;;;;5.47;4.97;;;13.00;99.90;;;;;;5055920;28;20232;-75
2022/06/17 04:20:56;;;;;;;6.30;5.70;;;13.10;99.90;;;;;;5055794;28;20591;-75
2022/06/17 04:23:26;;;;;;;6.50;5.30;;;13.30;99.90;;;;;;5055797;28;20251;-74
2022/06/17 04:25:57;;;;;;;7.20;5.77;;;13.30;99.90;;;;;;5055910;28;20202;-74
2022/06/17 04:28:28;;;;;;;7.03;5.73;;;13.30;99.90;;;;;;5055821;28;20205;-74
2022/06/17 04:31:00;;;;;;;7.07;5.63;;;13.40;99.90;;;;;;5056019;28;20197;-75
2022/06/17 04:33:28;;;;;;;6.73;5.70;;;13.50;99.90;;;;;;5055758;28;20193;-75
2022/06/17 04:36:00;;;;;;;6.30;5.70;;;13.50;99.90;;;;;;5055447;28;20247;-74
2022/06/17 04:38:29;;;;;;;5.67;5.10;;;13.60;99.90;;;;;;5055636;28;20237;-75
2022/06/17 04:40:58;;;;;;;5.97;5.33;;;13.60;99.90;;;;;;5055503;28;20268;-75
2022/06/17 04:43:30;;;;;;;5.50;5.00;;;13.80;99.90;;;;;;5055574;28;20280;-74
2022/06/17 04:46:01;;;;;;;5.97;5.10;;;13.90;99.90;;;;;;5055424;28;20240;-74
2022/06/17 04:48:29;;;;;;;6.20;5.60;;;13.90;99.90;;;;;;5055297;28;20205;-74
2022/06/17 04:50:56;;;;;;;7.40;5.10;;;13.90;99.90;;;;;;5055412;28;20602;-74
2022/06/17 04:53:24;;;;;;;7.27;5.57;;;13.90;99.90;;;;;;5054068;28;20676;-74
2022/06/17 04:55:51;;;;;;;6.03;5.43;;;14.00;99.90;;;;;;5055744;28;20197;-75
2022/06/17 04:58:21;;;;;;;5.50;4.90;;;14.10;99.90;;;;;;5055069;28;20194;-75
2022/06/17 05:00:51;;;;;;;8.23;5.23;;;14.20;99.90;;;;;;5055031;28;20603;-74
2022/06/17 05:03:19;;;;;;;7.23;4.83;;;14.40;99.90;;;;;;5055726;28;20259;-75
2022/06/17 05:05:47;;;;;;;8.87;4.73;;;14.60;99.90;;;;;;5055635;28;20194;-75
2022/06/17 05:08:23;;;;;;;6.07;4.83;;;14.80;99.90;;;;;;5055783;28;20198;-75
2022/06/17 05:10:55;;;;;;;6.97;4.97;;;15.00;99.90;;;;;;5055097;28;20656;-75
2022/06/17 05:13:26;;;;;;;6.10;5.00;;;15.20;99.90;;;;;;5054842;28;20224;-74
2022/06/17 05:15:52;;;;;;;8.53;5.33;;;15.20;99.90;;;;;;5054975;28;20202;-74
2022/06/17 05:18:21;;;;;;;6.47;5.07;;;15.10;99.90;;;;;;5054437;28;20592;-75
2022/06/17 05:20:48;;;;;;;7.37;4.80;;;15.00;99.90;;;;;;5054960;28;20599;-74
2022/06/17 05:23:17;;;;;;;6.75;4.97;;;15.10;99.90;;;;;;5054707;28;20201;-74
2022/06/17 05:25:46;;;;;;;7.10;5.20;;;15.10;99.90;;;;;;5054591;28;20197;-74
2022/06/17 05:28:15;;;;;;;5.00;4.50;;;15.20;99.90;;;;;;5054643;28;20209;-75
2022/06/17 05:30:45;;;;;;;7.43;5.00;;;15.20;99.90;;;;;;5054630;28;20259;-74
2022/06/17 05:33:14;;;;;;;4.90;4.30;;;15.40;99.90;;;;;;5054496;28;20197;-74
2022/06/17 05:35:42;;;;;;;7.50;4.53;;;15.50;99.90;;;;;;5054376;28;20198;-75
2022/06/17 05:38:08;;;;;;;5.47;4.30;;;15.60;99.90;;;;;;5054170;28;20224;-74
2022/06/17 05:40:36;;;;;;;5.28;4.35;;;15.80;99.90;;;;;;5054125;28;20225;-75
2022/06/17 05:43:03;;;;;;;5.23;4.40;;;15.90;99.90;;;;;;5054313;28;20263;-75
2022/06/17 05:45:31;;;;;;;4.32;3.92;;;15.90;99.90;;;;;;5054456;28;20203;-75
2022/06/17 05:47:57;;;;;;;7.13;4.30;;;16.00;99.90;;;;;;5054337;28;20255;-75
2022/06/17 05:50:26;;;;;;;6.78;4.50;;;16.10;99.90;;;;;;5054331;28;20308;-75
2022/06/17 05:52:57;;;;;;;4.85;4.22;;;16.30;99.90;;;;;;5054112;28;20722;-75
2022/06/17 05:55:25;;;;;;;5.47;4.10;;;16.40;99.90;;;;;;5054184;28;20240;-75
2022/06/17 05:57:52;;;;;;;5.43;3.95;;;16.60;99.90;;;;;;5053999;28;20206;-74
2022/06/17 06:00:20;;;;;;;5.35;3.92;;;16.70;99.90;;;;;;5054003;28;20251;-75
2022/06/17 06:02:47;;;;;;;6.50;4.20;;;17.00;99.90;;;;;;5054378;28;20200;-75
2022/06/17 06:05:21;;;;;;;5.13;4.03;;;17.20;99.90;;;;;;5054128;28;20243;-75
2022/06/17 06:07:48;;;;;;;5.15;3.63;;;17.20;99.90;;;;;;5053919;28;20220;-75
2022/06/17 06:10:17;;;;;;;4.28;3.58;;;17.50;99.90;;;;;;5054023;28;20197;-74
2022/06/17 06:12:57;;;;;;;3.65;3.35;;;17.50;99.90;;;;;;5054341;28;20198;-75
2022/06/17 06:15:26;;;;;;;6.95;3.90;;;17.70;99.90;;;;;;5054293;28;20280;-76
2022/06/17 06:17:54;;;;;;;4.18;3.55;;;17.80;99.90;;;;;;5054229;28;20230;-75
2022/06/17 06:20:21;;;;;;;5.07;3.80;;;18.00;99.90;;;;;;5053915;28;20303;-75
2022/06/17 06:22:47;;;;;;;5.68;3.40;;;18.10;99.90;;;;;;5054014;28;20203;-74
2022/06/17 06:25:17;;;;;;;5.15;3.50;;;18.20;99.90;;;;;;5053816;28;20272;-73
2022/06/17 06:27:44;;;;;;;5.95;3.30;;;18.20;99.90;;;;;;5053657;28;20201;-73
2022/06/17 06:30:18;;;;;;;7.75;3.45;;;18.30;99.90;;;;;;5053511;28;20197;-73
2022/06/17 06:32:48;;;;;;;4.38;3.17;;;18.40;99.90;;;;;;5053359;28;20284;-73
2022/06/17 06:35:16;;;;;;;3.45;3.13;;;18.60;99.90;;;;;;5053473;28;20239;-73
2022/06/17 06:37:42;;;;;;;3.97;3.47;;;18.80;99.90;;;;;;5053366;28;20205;-73
2022/06/17 06:40:10;;;;;;;5.65;3.67;;;18.90;99.90;;;;;;5053223;28;20279;-73
2022/06/17 06:42:38;;;;;;;6.97;3.40;;;19.00;99.90;;;;;;5053228;28;20243;-74
2022/06/17 06:45:06;;;;;;;5.00;3.45;;;19.10;99.90;;;;;;5053070;28;20599;-74
2022/06/17 06:47:33;;;;;;;5.45;3.22;;;19.30;99.90;;;;;;5053246;28;20202;-74
2022/06/17 06:50:00;;;;;;;6.95;3.97;;;19.40;99.90;;;;;;5053201;28;20205;-73
2022/06/17 06:52:26;;;;;;;6.85;4.55;;;19.50;99.90;;;;;;5053240;28;20194;-73
2022/06/17 06:54:53;;;;;;;5.85;3.65;;;19.60;99.90;;;;;;5053043;28;20252;-73
2022/06/17 06:57:20;;;;;;;4.75;3.45;;;19.70;99.90;;;;;;5053067;28;20205;-73
2022/06/17 06:59:48;;;;;;;5.75;3.00;;;19.70;99.90;;;;;;5052711;28;20320;-72
2022/06/17 07:02:15;;;;;;;7.05;3.10;;;19.80;99.90;;;;;;5052745;28;20206;-73
2022/06/17 07:04:41;;;;;;;5.40;3.40;;;19.80;99.90;;;;;;5052831;28;20652;-72
2022/06/17 07:07:10;;;;;;;3.17;2.88;;;19.80;99.90;;;;;;5052850;28;20201;-73
2022/06/17 07:09:36;;;;;;;4.47;2.92;;;19.90;99.90;;;;;;5052830;28;20228;-73
2022/06/17 07:12:03;;;;;;;11.10;3.72;;;19.90;99.90;;;;;;5052745;28;20201;-73
2022/06/17 07:14:30;;;;;;;4.47;4.10;;;20.00;99.90;;;;;;5052545;28;20202;-73
2022/06/17 07:16:58;;;;;;;4.65;3.05;;;20.10;99.90;;;;;;5052256;28;20257;-73
2022/06/17 07:19:25;;;;;;;3.00;2.53;;;20.10;99.90;;;;;;5052404;28;20692;-73
2022/06/17 07:21:52;;;;;;;4.10;2.85;;;20.10;98.80;;;;;;5052763;28;20201;-72
2022/06/17 07:24:18;;;;;;;4.30;2.90;;;20.20;99.90;;;;;;5052704;28;20198;-73
2022/06/17 07:26:45;;;;;;;5.82;3.10;;;20.30;99.20;;;;;;5052417;28;20205;-73
2022/06/17 07:29:13;;;;;;;3.28;2.67;;;20.40;98.50;;;;;;5052550;28;20229;-73
2022/06/17 07:31:41;;;;;;;4.53;2.75;;;20.50;98.60;;;;;;5052715;28;20224;-72
2022/06/17 07:34:09;;;;;;;5.85;2.90;;;20.60;97.10;;;;;;5052990;28;20206;-73
2022/06/17 07:42:05;;;;;;;4.30;2.67;;;20.70;95.00;;;;;;5052592;28;20227;-74
2022/06/17 07:44:33;;;;;;;3.08;2.78;;;20.90;95.00;;;;;;5052535;28;20201;-75
2022/06/17 07:46:59;;;;;;;5.53;2.70;;;21.10;94.00;;;;;;5050728;28;20734;-73
2022/06/17 07:49:28;;;;;;;4.60;2.72;;;21.10;93.20;;;;;;5051466;28;20201;-74
2022/06/17 07:51:54;;;;;;;4.15;2.90;;;21.20;92.40;;;;;;5051453;28;20198;-75
2022/06/17 07:54:21;;;;;;;4.35;2.83;;;21.50;91.80;;;;;;5052571;28;20201;-73
2022/06/17 07:56:47;;;;;;;6.30;3.08;;;21.60;90.50;;;;;;5052182;28;20283;-74
2022/06/17 07:59:14;;;;;;;5.80;2.97;;;21.70;85.50;;;;;;5052183;28;20202;-74
2022/06/17 08:01:41;;;;;;;4.90;3.20;;;21.80;86.70;;;;;;5051724;28;20206;-73
2022/06/17 08:04:07;;;;;;;5.00;2.85;;;22.00;85.60;;;;;;5052192;28;20232;-74
2022/06/17 08:06:35;;;;;;;5.28;2.90;;;22.00;83.50;;;;;;5052147;28;20198;-74
2022/06/17 08:09:03;;;;;;;6.13;3.33;;;22.20;83.10;;;;;;5052115;28;20198;-74
2022/06/17 08:11:30;;;;;;;3.80;2.95;;;22.10;80.20;;;;;;5052536;28;20280;-74
2022/06/17 08:13:56;;;;;;;4.93;2.95;;;22.10;77.90;;;;;;5051911;28;20272;-74
2022/06/17 08:16:23;;;;;;;5.80;3.17;;;22.20;76.10;;;;;;5051987;28;20209;-74
2022/06/17 08:18:50;;;;;;;3.40;2.78;;;22.30;74.20;;;;;;5051945;28;20224;-74
2022/06/17 08:21:17;;;;;;;6.93;3.08;;;22.50;76.40;;;;;;5052315;28;20275;-74
2022/06/17 08:23:46;;;;;;;7.43;3.13;;;22.90;75.00;;;;;;5051898;28;20278;-74
2022/06/17 08:26:13;;;;;;;4.32;3.00;;;23.30;70.30;;;;;;5052132;28;20283;-76
2022/06/17 08:28:39;;;;;;;5.32;2.92;;;23.60;68.50;;;;;;5052666;28;20216;-77
2022/06/17 08:31:06;;;;;;;6.97;3.10;;;23.40;65.10;;;;;;5055442;28;20251;-75
2022/06/17 08:33:33;;;;;;;3.35;2.88;;;22.80;64.80;;;;;;5054993;28;20202;-75
2022/06/17 08:36:04;;;;;;;6.10;3.00;;;22.60;63.80;;;;;;5055316;28;20197;-76
2022/06/17 08:38:34;;;;;;;8.40;2.95;;;22.80;64.30;;;;;;5055960;28;20200;-76
2022/06/17 08:41:11;;;;;;;5.53;2.90;;;23.00;62.30;;;;;;5055456;28;20298;-75
2022/06/17 08:43:55;;;;;;;3.42;2.75;;;22.80;62.00;;;;;;5055479;28;20251;-76
2022/06/17 08:46:39;;;;;;;4.45;3.00;;;22.70;61.00;;;;;;5055266;28;20644;-75
2022/06/17 08:49:24;;;;;;;5.07;2.90;;;22.40;61.70;;;;;;5055400;28;20193;-75
2022/06/17 08:52:05;;;;;;;4.05;3.10;;;23.00;64.00;;;;;;5055451;28;20202;-76
2022/06/17 08:54:40;;;;;;;5.35;2.88;;;23.70;63.30;;;;;;5055201;28;20197;-76
2022/06/17 08:57:18;;;;;;;4.55;2.97;;;23.70;58.40;;;;;;5055312;28;20255;-76
2022/06/17 09:00:06;;;;;;;2.95;2.55;;;23.70;60.10;;;;;;5055197;28;20229;-75
2022/06/17 09:02:46;;;;;;;3.83;2.72;;;24.30;58.50;;;;;;5052752;28;20267;-76
2022/06/17 09:05:28;;;;;;;3.17;2.55;;;24.80;56.20;;;;;;5055878;28;20197;-76
2022/06/17 09:08:06;;;;;;;6.03;2.47;;;25.20;55.40;;;;;;5055717;28;20244;-76
2022/06/17 09:10:44;;;;;;;3.13;2.78;;;25.40;53.40;;;;;;5056125;28;20251;-76
2022/06/17 09:13:28;;;;;;;4.63;3.00;;;25.60;52.10;;;;;;5055870;28;20202;-76
2022/06/17 09:16:02;;;;;;;3.17;2.80;;;25.80;49.50;;;;;;5055386;28;20205;-75
2022/06/17 09:18:31;;;;;;;4.18;2.88;;;25.30;49.70;;;;;;5054739;28;20233;-75
2022/06/17 09:21:05;;;;;;;4.45;2.90;;;25.50;49.20;;;;;;5054705;28;20291;-79
2022/06/17 09:23:36;;;;;;;5.43;2.85;;;25.70;49.50;;;;;;5054666;28;20251;-74
2022/06/17 09:26:07;;;;;;;4.28;3.03;;;26.00;47.70;;;;;;5054906;28;20260;-76
2022/06/17 09:28:40;;;;;;;5.40;2.70;;;25.90;45.50;;;;;;5054765;28;20197;-75
2022/06/17 09:31:14;;;;;;;4.25;2.70;;;26.00;47.60;;;;;;5054407;28;20197;-76
2022/06/17 09:33:45;;;;;;;3.50;2.50;;;26.50;44.00;;;;;;5054498;28;20232;-76
2022/06/17 09:36:17;;;;;;;3.67;2.47;;;26.90;42.90;;;;;;5054460;28;20198;-76
2022/06/17 09:38:50;;;;;;;6.10;2.58;;;27.20;40.90;;;;;;5054174;28;20209;-76
2022/06/17 09:41:22;;;;;;;2.63;2.42;;;27.50;40.00;;;;;;5053988;28;20221;-76
2022/06/17 09:43:56;;;;;;;2.85;2.60;;;27.60;40.10;;;;;;5054330;28;20248;-76
2022/06/17 09:46:26;;;;;;;3.55;2.58;;;27.80;38.40;;;;;;5054193;28;20206;-76
2022/06/17 09:48:59;;;;;;;3.20;2.60;;;27.40;37.00;;;;;;5054794;28;20197;-76
2022/06/17 09:51:32;;;;;;;3.50;2.50;;;27.80;37.20;;;;;;5054426;28;20202;-74
2022/06/17 09:54:05;;;;;;;4.25;2.45;;;27.60;35.00;;;;;;5053957;28;20561;-76
2022/06/17 09:56:39;;;;;;;5.00;2.22;;;28.40;34.70;;;;;;5053981;28;20255;-76
2022/06/17 09:59:16;;;;;;;3.65;2.60;;;28.80;35.10;;;;;;5054031;28;20209;-76
2022/06/17 10:01:44;;;;;;;5.55;2.53;;;29.00;33.10;;;;;;5053970;28;20221;-76
2022/06/17 10:04:13;;;;;;;4.13;2.65;;;28.40;32.40;;;;;;5054097;28;20198;-75
2022/06/17 10:06:50;;;;;;;5.10;2.88;;;28.30;32.00;;;;;;5053870;28;20252;-78
2022/06/17 10:09:30;;;;;;;2.90;2.60;;;27.60;32.00;;;;;;5053558;28;20266;-75
2022/06/17 10:12:01;;;;;;;4.72;2.78;;;28.00;33.30;;;;;;5053640;28;20725;-76
2022/06/17 10:14:47;;;;;;;4.10;2.65;;;28.60;32.30;;;;;;5053734;28;20201;-80
2022/06/17 10:20:26;;;;;;;4.63;3.03;;;29.80;30.50;;;;;;5053469;28;20247;-77
2022/06/17 10:23:02;;;;;;;2.80;2.45;;;30.30;29.40;;;;;;5053552;28;20194;-78
2022/06/17 10:25:51;;;;;;;4.70;2.30;;;29.70;28.10;;;;;;5053682;28;20201;-75
2022/06/17 10:28:45;;;;;;;4.28;2.50;;;29.30;28.30;;;;;;5053774;28;20259;-76
2022/06/17 10:31:21;;;;;;;4.60;2.33;;;29.20;28.40;;;;;;5053742;28;20210;-76
2022/06/17 10:33:49;;;;;;;3.22;2.15;;;30.40;28.80;;;;;;5053308;28;20616;-75
2022/06/17 10:36:17;;;;;;;3.15;2.00;;;31.00;26.80;;;;;;5053306;28;20197;-74
2022/06/17 10:38:47;;;;;;;3.92;2.47;;;31.20;26.10;;;;;;5053129;28;20197;-75
2022/06/17 10:41:16;;;;;;;3.30;2.10;;;31.50;25.00;;;;;;5053439;28;20229;-75
2022/06/17 10:43:46;;;;;;;2.33;2.10;;;30.70;25.10;;;;;;5053123;28;20202;-75
2022/06/17 10:46:17;;;;;;;2.38;2.10;;;31.70;25.10;;;;;;5053164;28;20209;-75
2022/06/17 10:48:50;;;;;;;6.30;2.05;;;32.20;23.40;;;;;;5053115;28;20201;-76
2022/06/17 10:51:17;;;;;;;5.95;2.33;;;32.00;23.00;;;;;;5052516;28;20227;-76
2022/06/17 10:53:48;;;;;;;6.65;2.28;;;32.30;22.70;;;;;;5053062;28;20204;-76
2022/06/17 10:56:20;;;;;;;2.95;2.38;;;32.80;21.70;;;;;;5052928;28;20275;-75
2022/06/17 10:58:59;;;;;;;2.05;1.90;;;32.80;21.00;;;;;;5052901;28;20263;-75
2022/06/17 11:01:50;;;;;;;5.97;2.22;;;31.60;21.70;;;;;;5052622;28;20275;-76
2022/06/17 11:04:19;;;;;;;4.35;2.05;;;31.70;21.20;;;;;;5052686;28;20204;-76
2022/06/17 11:06:50;;;;;;;2.20;2.00;;;32.90;21.40;;;;;;5052837;28;20263;-76
2022/06/17 11:09:25;;;;;;;3.20;2.15;;;33.40;20.80;;;;;;5052702;28;20197;-76
2022/06/17 11:12:07;;;;;;;4.10;1.95;;;35.30;19.40;;;;;;5052839;28;20201;-76
2022/06/17 11:14:40;;;;;;;3.70;2.10;;;35.90;17.90;;;;;;5052878;28;20224;-77
2022/06/17 11:17:17;;;;;;;4.20;2.10;;;36.90;16.70;;;;;;5052437;28;20350;-76
2022/06/17 11:19:46;;;;;;;3.10;2.15;;;36.70;16.10;;;;;;5052330;28;20667;-76
2022/06/17 11:22:21;;;;;;;3.05;1.80;;;37.00;15.90;;;;;;5051922;28;20259;-76
2022/06/17 11:24:53;;;;;;;2.30;1.70;;;35.50;15.60;;;;;;5052197;28;20196;-76
2022/06/17 11:27:27;;;;;;;2.15;2.00;;;36.60;16.00;;;;;;5051424;28;20197;-75
2022/06/17 11:29:56;;;;;;;3.10;1.90;;;37.60;14.60;;;;;;5051621;28;20200;-76
2022/06/17 11:32:28;;;;;;;3.42;2.05;;;38.20;13.90;;;;;;5052076;28;20630;-75
2022/06/17 11:34:57;;;;;;;3.33;1.92;;;38.20;13.60;;;;;;5050529;28;20694;-75
2022/06/17 11:37:27;;;;;;;4.00;2.05;;;37.80;12.90;;;;;;5052085;28;20189;-75
2022/06/17 11:40:10;;;;;;;4.22;2.00;;;37.80;13.50;;;;;;5052337;28;20197;-77
2022/06/17 11:42:45;;;;;;;5.18;1.95;;;36.50;13.80;;;;;;5051928;28;20205;-76
2022/06/17 11:45:17;;;;;;;2.47;2.20;;;37.00;13.00;;;;;;5052060;28;20205;-76
2022/06/17 11:47:52;;;;;;;2.40;1.90;;;35.70;13.30;;;;;;5052386;28;20201;-76
2022/06/17 11:50:23;;;;;;;3.38;2.00;;;35.80;13.50;;;;;;5052170;28;20258;-76
2022/06/17 11:52:52;;;;;;;3.13;1.98;;;37.10;13.40;;;;;;5051984;28;20677;-76
2022/06/17 11:55:27;;;;;;;2.35;1.90;;;38.10;13.30;;;;;;5052054;28;20197;-76
2022/06/17 11:57:54;;;;;;;3.30;1.88;;;36.80;12.70;;;;;;5052298;28;20197;-76
2022/06/17 12:00:25;;;;;;;4.63;2.25;;;38.10;12.50;;;;;;5052121;28;20193;-76
2022/06/17 12:03:00;;;;;;;4.40;1.92;;;39.10;11.40;;;;;;5053739;28;20201;-77
2022/06/17 12:05:29;;;;;;;2.97;1.95;;;39.70;10.90;;;;;;5056088;28;20254;-77
2022/06/17 12:08:01;;;;;;;4.55;2.10;;;39.90;11.10;;;;;;5055869;28;20260;-76
2022/06/17 12:10:36;;;;;;;2.22;1.92;;;39.80;10.50;;;;;;5055043;28;20205;-77
2022/06/17 12:13:08;;;;;;;3.03;2.00;;;39.80;10.20;;;;;;5055855;28;20197;-76
2022/06/17 12:15:39;;;;;;;2.20;2.00;;;38.50;10.60;;;;;;5055697;28;20227;-76
2022/06/17 12:18:16;;;;;;;2.08;1.88;;;38.10;10.50;;;;;;5055572;28;20240;-76
2022/06/17 12:20:53;;;;;;;2.00;1.80;;;36.80;11.20;;;;;;5055282;28;20292;-76
2022/06/17 12:23:27;;;;;;;4.32;2.05;;;36.30;12.30;;;;;;5054649;28;20243;-76
2022/06/17 12:25:59;;;;;;;2.22;1.88;;;34.60;12.30;;;;;;5055711;28;20193;-76
2022/06/17 12:28:35;;;;;;;3.95;2.08;;;33.90;13.80;;;;;;5055512;28;20208;-76
2022/06/17 12:31:07;;;;;;;2.47;2.00;;;32.30;14.00;;;;;;5055451;28;20217;-76
2022/06/17 12:33:40;;;;;;;2.40;2.20;;;32.70;15.00;;;;;;5055586;28;20205;-75
2022/06/17 12:36:14;;;;;;;4.43;2.85;;;34.70;13.10;;;;;;5055595;28;20251;-75
2022/06/17 12:38:48;;;;;;;2.50;1.98;;;36.50;12.60;;;;;;5055478;28;20197;-76
2022/06/17 12:41:21;;;;;;;3.45;1.80;;;36.50;11.60;;;;;;5055224;28;20590;-76
2022/06/17 12:43:55;;;;;;;2.33;1.67;;;35.60;12.00;;;;;;5055312;28;20197;-75
2022/06/17 12:46:28;;;;;;;1.85;1.73;;;34.70;12.50;;;;;;5055267;28;20652;-76
2022/06/17 12:54:51;;;;;;;2.38;1.85;;;37.00;11.30;;;;;;5055137;28;20204;-77
2022/06/17 12:57:25;;;;;;;2.85;1.98;;;36.50;11.30;;;;;;5055082;28;20201;-76
2022/06/17 12:59:58;;;;;;;4.25;1.75;;;37.20;11.30;;;;;;5055042;28;20197;-76
2022/06/17 13:02:36;;;;;;;2.22;1.95;;;38.80;10.40;;;;;;5054944;28;20680;-76
2022/06/17 13:05:14;;;;;;;2.42;2.03;;;39.00;9.90;;;;;;5054936;28;20200;-74
2022/06/17 13:07:53;;;;;;;3.88;1.70;;;40.50;9.40;;;;;;5054902;28;20251;-76
2022/06/17 13:10:43;;;;;;;2.25;1.80;;;39.50;9.30;;;;;;5054846;28;20205;-76
2022/06/17 13:13:28;;;;;;;2.25;2.03;;;39.50;8.70;;;;;;5054696;28;20208;-76
2022/06/17 13:15:58;;;;;;;2.22;1.90;;;38.30;10.00;;;;;;5054342;28;20201;-76
2022/06/17 13:18:29;;;;;;;2.22;1.92;;;38.50;9.80;;;;;;5054455;28;20233;-76
2022/06/17 13:21:07;;;;;;;4.47;2.10;;;38.70;9.60;;;;;;5054646;28;20250;-76
2022/06/17 13:23:41;;;;;;;2.50;1.85;;;36.80;10.30;;;;;;5054763;28;20201;-76